sensor_id;sensor_type;location;lat;lon;timestamp;P1;durP1;ratioP1;P2;durP2;ratioP2
47053;SDS011;32811;52.382;5.270;2022-11-20T00:01:12;14.55;;;8.90;;
47053;SDS011;32811;52.382;5.270;2022-11-20T00:03:47;14.13;;;8.95;;
47053;SDS011;32811;52.382;5.270;2022-11-20T00:06:15;21.20;;;11.27;;
47053;SDS011;32811;52.382;5.270;2022-11-20T00:08:43;16.50;;;9.20;;
47053;SDS011;32811;52.382;5.270;2022-11-20T00:11:11;13.05;;;8.80;;
47053;SDS011;32811;52.382;5.270;2022-11-20T00:13:42;10.90;;;8.25;;
47053;SDS011;32811;52.382;5.270;2022-11-20T00:16:09;13.75;;;8.50;;
47053;SDS011;32811;52.382;5.270;2022-11-20T00:18:37;13.20;;;7.97;;
47053;SDS011;32811;52.382;5.270;2022-11-20T00:21:17;12.48;;;7.93;;
47053;SDS011;32811;52.382;5.270;2022-11-20T00:23:49;12.93;;;7.40;;
47053;SDS011;32811;52.382;5.270;2022-11-20T00:26:20;16.15;;;7.53;;
47053;SDS011;32811;52.382;5.270;2022-11-20T00:28:49;9.80;;;7.72;;
47053;SDS011;32811;52.382;5.270;2022-11-20T00:31:20;16.35;;;8.32;;
47053;SDS011;32811;52.382;5.270;2022-11-20T00:33:47;14.30;;;8.70;;
47053;SDS011;32811;52.382;5.270;2022-11-20T00:36:15;13.30;;;8.25;;
47053;SDS011;32811;52.382;5.270;2022-11-20T00:38:50;13.05;;;8.60;;
47053;SDS011;32811;52.382;5.270;2022-11-20T00:41:18;15.23;;;9.15;;
47053;SDS011;32811;52.382;5.270;2022-11-20T00:43:46;15.35;;;8.75;;
47053;SDS011;32811;52.382;5.270;2022-11-20T00:46:14;12.43;;;7.90;;
47053;SDS011;32811;52.382;5.270;2022-11-20T00:48:44;15.02;;;9.00;;
47053;SDS011;32811;52.382;5.270;2022-11-20T00:51:12;15.00;;;8.75;;
47053;SDS011;32811;52.382;5.270;2022-11-20T00:53:41;10.77;;;7.70;;
47053;SDS011;32811;52.382;5.270;2022-11-20T00:56:13;12.38;;;8.38;;
47053;SDS011;32811;52.382;5.270;2022-11-20T00:58:42;15.40;;;8.88;;
47053;SDS011;32811;52.382;5.270;2022-11-20T01:01:11;16.23;;;8.30;;
47053;SDS011;32811;52.382;5.270;2022-11-20T01:03:42;10.90;;;6.78;;
47053;SDS011;32811;52.382;5.270;2022-11-20T01:06:20;13.73;;;7.80;;
47053;SDS011;32811;52.382;5.270;2022-11-20T01:08:49;10.88;;;7.78;;
47053;SDS011;32811;52.382;5.270;2022-11-20T01:11:18;11.18;;;8.02;;
47053;SDS011;32811;52.382;5.270;2022-11-20T01:13:47;16.13;;;9.13;;
47053;SDS011;32811;52.382;5.270;2022-11-20T01:16:16;12.25;;;8.40;;
47053;SDS011;32811;52.382;5.270;2022-11-20T01:18:44;11.98;;;8.15;;
47053;SDS011;32811;52.382;5.270;2022-11-20T01:21:13;14.82;;;9.13;;
47053;SDS011;32811;52.382;5.270;2022-11-20T01:23:45;14.82;;;9.05;;
47053;SDS011;32811;52.382;5.270;2022-11-20T01:26:16;12.65;;;8.48;;
47053;SDS011;32811;52.382;5.270;2022-11-20T01:28:45;13.88;;;8.18;;
47053;SDS011;32811;52.382;5.270;2022-11-20T01:33:45;15.23;;;8.00;;
47053;SDS011;32811;52.382;5.270;2022-11-20T01:36:13;16.33;;;8.57;;
47053;SDS011;32811;52.382;5.270;2022-11-20T01:38:41;14.63;;;8.30;;
47053;SDS011;32811;52.382;5.270;2022-11-20T01:41:08;13.68;;;8.38;;
47053;SDS011;32811;52.382;5.270;2022-11-20T01:43:36;13.75;;;8.68;;
47053;SDS011;32811;52.382;5.270;2022-11-20T01:46:13;13.43;;;8.60;;
47053;SDS011;32811;52.382;5.270;2022-11-20T01:48:49;10.07;;;7.80;;
47053;SDS011;32811;52.382;5.270;2022-11-20T01:51:39;18.40;;;9.73;;
47053;SDS011;32811;52.382;5.270;2022-11-20T01:54:14;13.10;;;8.00;;
47053;SDS011;32811;52.382;5.270;2022-11-20T01:56:46;13.27;;;7.60;;
47053;SDS011;32811;52.382;5.270;2022-11-20T01:59:15;11.43;;;7.30;;
47053;SDS011;32811;52.382;5.270;2022-11-20T02:01:45;11.98;;;8.38;;
47053;SDS011;32811;52.382;5.270;2022-11-20T02:04:12;10.43;;;7.15;;
47053;SDS011;32811;52.382;5.270;2022-11-20T02:06:40;12.98;;;7.85;;
47053;SDS011;32811;52.382;5.270;2022-11-20T02:09:13;13.43;;;8.30;;
47053;SDS011;32811;52.382;5.270;2022-11-20T02:11:40;15.90;;;7.45;;
47053;SDS011;32811;52.382;5.270;2022-11-20T02:14:07;10.02;;;7.40;;
47053;SDS011;32811;52.382;5.270;2022-11-20T02:16:36;10.68;;;7.18;;
47053;SDS011;32811;52.382;5.270;2022-11-20T02:19:06;12.70;;;7.82;;
47053;SDS011;32811;52.382;5.270;2022-11-20T02:24:21;12.52;;;7.95;;
47053;SDS011;32811;52.382;5.270;2022-11-20T02:29:25;10.02;;;6.55;;
47053;SDS011;32811;52.382;5.270;2022-11-20T02:31:57;13.10;;;6.88;;
47053;SDS011;32811;52.382;5.270;2022-11-20T02:34:26;9.98;;;6.82;;
47053;SDS011;32811;52.382;5.270;2022-11-20T02:36:55;11.63;;;7.95;;
47053;SDS011;32811;52.382;5.270;2022-11-20T02:39:23;11.52;;;7.00;;
47053;SDS011;32811;52.382;5.270;2022-11-20T02:41:52;11.45;;;6.20;;
47053;SDS011;32811;52.382;5.270;2022-11-20T02:44:20;10.57;;;7.47;;
47053;SDS011;32811;52.382;5.270;2022-11-20T02:46:46;11.30;;;6.90;;
47053;SDS011;32811;52.382;5.270;2022-11-20T02:49:13;13.38;;;7.32;;
47053;SDS011;32811;52.382;5.270;2022-11-20T02:51:40;13.18;;;6.63;;
47053;SDS011;32811;52.382;5.270;2022-11-20T02:54:08;9.77;;;6.70;;
47053;SDS011;32811;52.382;5.270;2022-11-20T02:56:34;10.07;;;6.30;;
47053;SDS011;32811;52.382;5.270;2022-11-20T02:59:04;11.20;;;5.90;;
47053;SDS011;32811;52.382;5.270;2022-11-20T03:01:31;8.30;;;6.05;;
47053;SDS011;32811;52.382;5.270;2022-11-20T03:03:58;13.55;;;7.30;;
47053;SDS011;32811;52.382;5.270;2022-11-20T03:06:25;9.05;;;6.72;;
47053;SDS011;32811;52.382;5.270;2022-11-20T03:08:52;12.70;;;7.40;;
47053;SDS011;32811;52.382;5.270;2022-11-20T03:11:19;12.73;;;6.07;;
47053;SDS011;32811;52.382;5.270;2022-11-20T03:13:47;10.80;;;6.50;;
47053;SDS011;32811;52.382;5.270;2022-11-20T03:16:15;14.23;;;6.25;;
47053;SDS011;32811;52.382;5.270;2022-11-20T03:18:44;11.77;;;7.75;;
47053;SDS011;32811;52.382;5.270;2022-11-20T03:21:11;11.27;;;6.60;;
47053;SDS011;32811;52.382;5.270;2022-11-20T03:23:39;11.65;;;6.95;;
47053;SDS011;32811;52.382;5.270;2022-11-20T03:26:10;9.82;;;7.13;;
47053;SDS011;32811;52.382;5.270;2022-11-20T03:28:40;10.93;;;7.00;;
47053;SDS011;32811;52.382;5.270;2022-11-20T03:31:09;9.40;;;5.60;;
47053;SDS011;32811;52.382;5.270;2022-11-20T03:33:38;13.68;;;7.13;;
47053;SDS011;32811;52.382;5.270;2022-11-20T03:36:07;10.07;;;6.38;;
47053;SDS011;32811;52.382;5.270;2022-11-20T03:38:37;10.45;;;6.20;;
47053;SDS011;32811;52.382;5.270;2022-11-20T03:41:08;9.43;;;6.72;;
47053;SDS011;32811;52.382;5.270;2022-11-20T03:43:37;9.55;;;5.80;;
47053;SDS011;32811;52.382;5.270;2022-11-20T03:46:04;13.10;;;6.13;;
47053;SDS011;32811;52.382;5.270;2022-11-20T03:48:32;11.77;;;6.35;;
47053;SDS011;32811;52.382;5.270;2022-11-20T03:51:18;10.55;;;5.70;;
47053;SDS011;32811;52.382;5.270;2022-11-20T03:53:50;8.68;;;5.97;;
47053;SDS011;32811;52.382;5.270;2022-11-20T03:56:20;9.00;;;5.53;;
47053;SDS011;32811;52.382;5.270;2022-11-20T03:58:50;8.63;;;5.47;;
47053;SDS011;32811;52.382;5.270;2022-11-20T04:01:18;14.63;;;6.22;;
47053;SDS011;32811;52.382;5.270;2022-11-20T04:03:51;9.77;;;5.50;;
47053;SDS011;32811;52.382;5.270;2022-11-20T04:06:20;8.73;;;5.55;;
47053;SDS011;32811;52.382;5.270;2022-11-20T04:08:48;10.82;;;5.85;;
47053;SDS011;32811;52.382;5.270;2022-11-20T04:11:25;8.60;;;6.28;;
47053;SDS011;32811;52.382;5.270;2022-11-20T04:13:57;13.93;;;5.97;;
47053;SDS011;32811;52.382;5.270;2022-11-20T04:16:25;9.27;;;5.35;;
47053;SDS011;32811;52.382;5.270;2022-11-20T04:18:55;9.82;;;6.05;;
47053;SDS011;32811;52.382;5.270;2022-11-20T04:21:24;8.52;;;5.60;;
47053;SDS011;32811;52.382;5.270;2022-11-20T04:23:52;8.32;;;5.90;;
47053;SDS011;32811;52.382;5.270;2022-11-20T04:26:20;7.35;;;5.15;;
47053;SDS011;32811;52.382;5.270;2022-11-20T04:28:48;8.88;;;5.80;;
47053;SDS011;32811;52.382;5.270;2022-11-20T04:31:17;7.82;;;5.43;;
47053;SDS011;32811;52.382;5.270;2022-11-20T04:33:45;6.68;;;5.43;;
47053;SDS011;32811;52.382;5.270;2022-11-20T04:36:17;12.25;;;5.80;;
47053;SDS011;32811;52.382;5.270;2022-11-20T04:38:54;7.45;;;5.15;;
47053;SDS011;32811;52.382;5.270;2022-11-20T04:41:26;7.45;;;4.78;;
47053;SDS011;32811;52.382;5.270;2022-11-20T04:43:58;10.13;;;6.10;;
47053;SDS011;32811;52.382;5.270;2022-11-20T04:46:30;8.53;;;5.73;;
47053;SDS011;32811;52.382;5.270;2022-11-20T04:48:58;11.20;;;5.95;;
47053;SDS011;32811;52.382;5.270;2022-11-20T04:51:25;8.02;;;5.57;;
47053;SDS011;32811;52.382;5.270;2022-11-20T04:53:52;9.98;;;6.07;;
47053;SDS011;32811;52.382;5.270;2022-11-20T04:56:20;11.93;;;6.03;;
47053;SDS011;32811;52.382;5.270;2022-11-20T04:58:46;8.45;;;5.80;;
47053;SDS011;32811;52.382;5.270;2022-11-20T05:01:14;8.48;;;5.65;;
47053;SDS011;32811;52.382;5.270;2022-11-20T05:03:41;9.48;;;6.43;;
47053;SDS011;32811;52.382;5.270;2022-11-20T05:06:11;8.10;;;5.47;;
47053;SDS011;32811;52.382;5.270;2022-11-20T05:08:40;9.02;;;6.47;;
47053;SDS011;32811;52.382;5.270;2022-11-20T05:11:11;8.07;;;6.38;;
47053;SDS011;32811;52.382;5.270;2022-11-20T05:13:39;9.93;;;6.38;;
47053;SDS011;32811;52.382;5.270;2022-11-20T05:16:08;9.30;;;6.43;;
47053;SDS011;32811;52.382;5.270;2022-11-20T05:18:40;8.05;;;5.63;;
47053;SDS011;32811;52.382;5.270;2022-11-20T05:21:08;10.82;;;5.93;;
47053;SDS011;32811;52.382;5.270;2022-11-20T05:23:35;8.75;;;6.05;;
47053;SDS011;32811;52.382;5.270;2022-11-20T05:26:03;11.10;;;6.03;;
47053;SDS011;32811;52.382;5.270;2022-11-20T05:28:30;10.75;;;5.90;;
47053;SDS011;32811;52.382;5.270;2022-11-20T05:31:04;9.93;;;6.38;;
47053;SDS011;32811;52.382;5.270;2022-11-20T05:33:34;8.70;;;5.57;;
47053;SDS011;32811;52.382;5.270;2022-11-20T05:36:02;9.23;;;6.07;;
47053;SDS011;32811;52.382;5.270;2022-11-20T05:38:29;8.07;;;5.40;;
47053;SDS011;32811;52.382;5.270;2022-11-20T05:41:02;9.75;;;5.72;;
47053;SDS011;32811;52.382;5.270;2022-11-20T05:43:31;8.50;;;5.50;;
47053;SDS011;32811;52.382;5.270;2022-11-20T05:46:02;7.97;;;5.07;;
47053;SDS011;32811;52.382;5.270;2022-11-20T05:48:30;9.68;;;5.93;;
47053;SDS011;32811;52.382;5.270;2022-11-20T05:51:00;9.43;;;5.47;;
47053;SDS011;32811;52.382;5.270;2022-11-20T05:53:28;11.23;;;6.70;;
47053;SDS011;32811;52.382;5.270;2022-11-20T05:55:59;9.13;;;6.55;;
47053;SDS011;32811;52.382;5.270;2022-11-20T05:58:27;9.57;;;6.35;;
47053;SDS011;32811;52.382;5.270;2022-11-20T06:01:02;10.85;;;6.25;;
47053;SDS011;32811;52.382;5.270;2022-11-20T06:03:33;10.70;;;7.00;;
47053;SDS011;32811;52.382;5.270;2022-11-20T06:06:00;9.10;;;5.28;;
47053;SDS011;32811;52.382;5.270;2022-11-20T06:08:28;7.72;;;5.57;;
47053;SDS011;32811;52.382;5.270;2022-11-20T06:10:55;9.43;;;5.90;;
47053;SDS011;32811;52.382;5.270;2022-11-20T06:13:22;10.73;;;6.03;;
47053;SDS011;32811;52.382;5.270;2022-11-20T06:15:50;7.80;;;5.82;;
47053;SDS011;32811;52.382;5.270;2022-11-20T06:18:18;8.93;;;5.95;;
47053;SDS011;32811;52.382;5.270;2022-11-20T06:20:46;8.32;;;5.68;;
47053;SDS011;32811;52.382;5.270;2022-11-20T06:23:12;10.45;;;6.28;;
47053;SDS011;32811;52.382;5.270;2022-11-20T06:25:40;7.55;;;5.53;;
47053;SDS011;32811;52.382;5.270;2022-11-20T06:28:07;10.82;;;6.57;;
47053;SDS011;32811;52.382;5.270;2022-11-20T06:30:35;11.45;;;7.40;;
47053;SDS011;32811;52.382;5.270;2022-11-20T06:33:02;8.95;;;6.03;;
47053;SDS011;32811;52.382;5.270;2022-11-20T06:35:28;9.68;;;6.72;;
47053;SDS011;32811;52.382;5.270;2022-11-20T06:37:55;9.68;;;6.43;;
47053;SDS011;32811;52.382;5.270;2022-11-20T06:40:22;11.25;;;6.43;;
47053;SDS011;32811;52.382;5.270;2022-11-20T06:42:48;7.65;;;6.00;;
47053;SDS011;32811;52.382;5.270;2022-11-20T06:45:15;10.68;;;6.35;;
47053;SDS011;32811;52.382;5.270;2022-11-20T06:47:41;9.77;;;7.18;;
47053;SDS011;32811;52.382;5.270;2022-11-20T06:50:08;11.82;;;6.55;;
47053;SDS011;32811;52.382;5.270;2022-11-20T06:52:34;7.80;;;5.50;;
47053;SDS011;32811;52.382;5.270;2022-11-20T06:55:08;12.70;;;6.40;;
47053;SDS011;32811;52.382;5.270;2022-11-20T06:57:35;13.88;;;6.80;;
47053;SDS011;32811;52.382;5.270;2022-11-20T07:00:02;11.80;;;7.03;;
47053;SDS011;32811;52.382;5.270;2022-11-20T07:02:29;10.10;;;6.45;;
47053;SDS011;32811;52.382;5.270;2022-11-20T07:04:55;11.75;;;7.53;;
47053;SDS011;32811;52.382;5.270;2022-11-20T07:07:22;9.07;;;5.95;;
47053;SDS011;32811;52.382;5.270;2022-11-20T07:09:49;10.52;;;6.82;;
47053;SDS011;32811;52.382;5.270;2022-11-20T07:12:15;10.23;;;6.90;;
47053;SDS011;32811;52.382;5.270;2022-11-20T07:14:42;13.05;;;7.28;;
47053;SDS011;32811;52.382;5.270;2022-11-20T07:17:09;10.38;;;6.85;;
47053;SDS011;32811;52.382;5.270;2022-11-20T07:19:36;14.10;;;7.88;;
47053;SDS011;32811;52.382;5.270;2022-11-20T07:22:02;13.30;;;7.63;;
47053;SDS011;32811;52.382;5.270;2022-11-20T07:24:29;11.73;;;7.72;;
47053;SDS011;32811;52.382;5.270;2022-11-20T07:26:56;8.88;;;6.82;;
47053;SDS011;32811;52.382;5.270;2022-11-20T07:29:22;12.60;;;8.05;;
47053;SDS011;32811;52.382;5.270;2022-11-20T07:31:49;9.88;;;7.13;;
47053;SDS011;32811;52.382;5.270;2022-11-20T07:34:16;11.52;;;7.38;;
47053;SDS011;32811;52.382;5.270;2022-11-20T07:36:42;16.17;;;8.05;;
47053;SDS011;32811;52.382;5.270;2022-11-20T07:39:09;14.15;;;8.63;;
47053;SDS011;32811;52.382;5.270;2022-11-20T07:41:35;16.02;;;9.90;;
47053;SDS011;32811;52.382;5.270;2022-11-20T07:44:02;14.00;;;9.45;;
47053;SDS011;32811;52.382;5.270;2022-11-20T07:46:29;14.38;;;9.35;;
47053;SDS011;32811;52.382;5.270;2022-11-20T07:48:55;15.05;;;10.50;;
47053;SDS011;32811;52.382;5.270;2022-11-20T07:51:22;13.07;;;8.60;;
47053;SDS011;32811;52.382;5.270;2022-11-20T07:53:52;11.27;;;8.13;;
47053;SDS011;32811;52.382;5.270;2022-11-20T07:56:20;15.52;;;8.40;;
47053;SDS011;32811;52.382;5.270;2022-11-20T07:58:46;12.48;;;9.25;;
47053;SDS011;32811;52.382;5.270;2022-11-20T08:01:13;11.07;;;8.27;;
47053;SDS011;32811;52.382;5.270;2022-11-20T08:03:39;13.55;;;8.73;;
47053;SDS011;32811;52.382;5.270;2022-11-20T08:06:06;15.00;;;9.20;;
47053;SDS011;32811;52.382;5.270;2022-11-20T08:08:33;17.40;;;8.70;;
47053;SDS011;32811;52.382;5.270;2022-11-20T08:11:07;17.30;;;10.35;;
47053;SDS011;32811;52.382;5.270;2022-11-20T08:14:12;13.60;;;9.52;;
47053;SDS011;32811;52.382;5.270;2022-11-20T08:16:40;13.43;;;9.77;;
47053;SDS011;32811;52.382;5.270;2022-11-20T08:19:08;18.38;;;9.52;;
47053;SDS011;32811;52.382;5.270;2022-11-20T08:21:35;17.52;;;9.70;;
47053;SDS011;32811;52.382;5.270;2022-11-20T08:24:03;15.57;;;10.13;;
47053;SDS011;32811;52.382;5.270;2022-11-20T08:26:31;15.02;;;9.75;;
47053;SDS011;32811;52.382;5.270;2022-11-20T08:28:57;16.90;;;10.77;;
47053;SDS011;32811;52.382;5.270;2022-11-20T08:31:25;17.85;;;10.13;;
47053;SDS011;32811;52.382;5.270;2022-11-20T08:33:53;18.38;;;11.25;;
47053;SDS011;32811;52.382;5.270;2022-11-20T08:36:20;19.48;;;11.45;;
47053;SDS011;32811;52.382;5.270;2022-11-20T08:38:49;14.35;;;10.70;;
47053;SDS011;32811;52.382;5.270;2022-11-20T08:41:16;17.02;;;11.80;;
47053;SDS011;32811;52.382;5.270;2022-11-20T08:43:54;17.10;;;11.63;;
47053;SDS011;32811;52.382;5.270;2022-11-20T08:46:25;16.45;;;10.20;;
47053;SDS011;32811;52.382;5.270;2022-11-20T08:48:53;33.63;;;17.67;;
47053;SDS011;32811;52.382;5.270;2022-11-20T08:51:20;46.88;;;21.13;;
47053;SDS011;32811;52.382;5.270;2022-11-20T08:53:47;24.60;;;15.73;;
47053;SDS011;32811;52.382;5.270;2022-11-20T08:56:14;27.85;;;15.60;;
47053;SDS011;32811;52.382;5.270;2022-11-20T08:58:41;28.55;;;15.23;;
47053;SDS011;32811;52.382;5.270;2022-11-20T09:01:29;18.92;;;12.57;;
47053;SDS011;32811;52.382;5.270;2022-11-20T09:03:55;23.00;;;15.38;;
47053;SDS011;32811;52.382;5.270;2022-11-20T09:06:23;17.38;;;12.07;;
47053;SDS011;32811;52.382;5.270;2022-11-20T09:08:53;17.10;;;11.45;;
47053;SDS011;32811;52.382;5.270;2022-11-20T09:11:20;14.75;;;10.25;;
47053;SDS011;32811;52.382;5.270;2022-11-20T09:13:47;17.27;;;11.65;;
47053;SDS011;32811;52.382;5.270;2022-11-20T09:16:14;27.52;;;15.90;;
47053;SDS011;32811;52.382;5.270;2022-11-20T09:18:40;19.30;;;12.15;;
47053;SDS011;32811;52.382;5.270;2022-11-20T09:21:12;17.67;;;11.75;;
47053;SDS011;32811;52.382;5.270;2022-11-20T09:23:40;15.98;;;11.65;;
47053;SDS011;32811;52.382;5.270;2022-11-20T09:26:09;22.17;;;13.45;;
47053;SDS011;32811;52.382;5.270;2022-11-20T09:28:37;21.98;;;13.52;;
47053;SDS011;32811;52.382;5.270;2022-11-20T09:31:05;17.67;;;12.57;;
47053;SDS011;32811;52.382;5.270;2022-11-20T09:33:41;20.33;;;13.05;;
47053;SDS011;32811;52.382;5.270;2022-11-20T09:36:09;21.23;;;12.13;;
47053;SDS011;32811;52.382;5.270;2022-11-20T09:38:35;20.10;;;11.45;;
47053;SDS011;32811;52.382;5.270;2022-11-20T09:41:03;21.40;;;13.15;;
47053;SDS011;32811;52.382;5.270;2022-11-20T09:43:36;19.30;;;12.25;;
47053;SDS011;32811;52.382;5.270;2022-11-20T09:51:53;15.07;;;10.57;;
47053;SDS011;32811;52.382;5.270;2022-11-20T09:54:29;17.38;;;13.27;;
47053;SDS011;32811;52.382;5.270;2022-11-20T09:57:02;24.63;;;12.63;;
47053;SDS011;32811;52.382;5.270;2022-11-20T09:59:36;21.02;;;13.63;;
47053;SDS011;32811;52.382;5.270;2022-11-20T10:02:15;19.77;;;12.07;;
47053;SDS011;32811;52.382;5.270;2022-11-20T10:05:06;18.70;;;12.55;;
47053;SDS011;32811;52.382;5.270;2022-11-20T10:10:39;16.33;;;11.23;;
47053;SDS011;32811;52.382;5.270;2022-11-20T10:13:21;17.65;;;11.65;;
47053;SDS011;32811;52.382;5.270;2022-11-20T10:30:03;21.55;;;11.68;;
47053;SDS011;32811;52.382;5.270;2022-11-20T10:32:43;20.38;;;11.55;;
47053;SDS011;32811;52.382;5.270;2022-11-20T10:37:51;17.63;;;12.35;;
47053;SDS011;32811;52.382;5.270;2022-11-20T10:42:59;22.42;;;11.57;;
47053;SDS011;32811;52.382;5.270;2022-11-20T10:48:34;18.67;;;13.00;;
47053;SDS011;32811;52.382;5.270;2022-11-20T10:56:50;17.05;;;11.80;;
47053;SDS011;32811;52.382;5.270;2022-11-20T11:02:39;20.60;;;12.38;;
47053;SDS011;32811;52.382;5.270;2022-11-20T11:05:13;18.90;;;11.70;;
47053;SDS011;32811;52.382;5.270;2022-11-20T11:07:49;18.35;;;12.57;;
47053;SDS011;32811;52.382;5.270;2022-11-20T11:10:32;19.58;;;12.95;;
47053;SDS011;32811;52.382;5.270;2022-11-20T11:13:04;21.73;;;12.88;;
47053;SDS011;32811;52.382;5.270;2022-11-20T11:15:38;21.20;;;12.73;;
47053;SDS011;32811;52.382;5.270;2022-11-20T11:18:10;19.42;;;12.90;;
47053;SDS011;32811;52.382;5.270;2022-11-20T11:20:37;23.58;;;13.70;;
47053;SDS011;32811;52.382;5.270;2022-11-20T11:23:04;19.60;;;13.30;;
47053;SDS011;32811;52.382;5.270;2022-11-20T11:25:35;19.55;;;12.57;;
47053;SDS011;32811;52.382;5.270;2022-11-20T11:28:03;21.15;;;13.63;;
47053;SDS011;32811;52.382;5.270;2022-11-20T11:30:52;21.55;;;13.60;;
47053;SDS011;32811;52.382;5.270;2022-11-20T11:33:19;22.50;;;14.25;;
47053;SDS011;32811;52.382;5.270;2022-11-20T11:35:58;20.25;;;13.68;;
47053;SDS011;32811;52.382;5.270;2022-11-20T11:38:42;21.33;;;13.68;;
47053;SDS011;32811;52.382;5.270;2022-11-20T11:41:16;32.60;;;17.98;;
47053;SDS011;32811;52.382;5.270;2022-11-20T11:43:52;23.73;;;14.73;;
47053;SDS011;32811;52.382;5.270;2022-11-20T11:46:41;23.30;;;13.63;;
47053;SDS011;32811;52.382;5.270;2022-11-20T11:49:18;27.25;;;17.05;;
47053;SDS011;32811;52.382;5.270;2022-11-20T11:52:08;24.35;;;14.68;;
47053;SDS011;32811;52.382;5.270;2022-11-20T11:54:50;30.63;;;16.25;;
47053;SDS011;32811;52.382;5.270;2022-11-20T12:07:48;25.23;;;17.23;;
47053;SDS011;32811;52.382;5.270;2022-11-20T12:10:24;26.52;;;16.60;;
47053;SDS011;32811;52.382;5.270;2022-11-20T12:13:20;18.73;;;12.07;;
47053;SDS011;32811;52.382;5.270;2022-11-20T12:15:48;35.65;;;17.05;;
47053;SDS011;32811;52.382;5.270;2022-11-20T12:18:17;26.95;;;16.73;;
47053;SDS011;32811;52.382;5.270;2022-11-20T12:24:06;31.33;;;17.17;;
47053;SDS011;32811;52.382;5.270;2022-11-20T12:26:43;27.80;;;17.05;;
47053;SDS011;32811;52.382;5.270;2022-11-20T12:29:28;30.13;;;18.13;;
47053;SDS011;32811;52.382;5.270;2022-11-20T12:34:40;30.85;;;18.33;;
47053;SDS011;32811;52.382;5.270;2022-11-20T12:37:18;29.58;;;17.10;;
47053;SDS011;32811;52.382;5.270;2022-11-20T12:43:08;32.42;;;17.67;;
47053;SDS011;32811;52.382;5.270;2022-11-20T12:48:41;30.80;;;17.27;;
47053;SDS011;32811;52.382;5.270;2022-11-20T12:51:22;30.05;;;18.17;;
47053;SDS011;32811;52.382;5.270;2022-11-20T13:05:18;29.02;;;17.45;;
47053;SDS011;32811;52.382;5.270;2022-11-20T13:07:46;33.47;;;21.38;;
47053;SDS011;32811;52.382;5.270;2022-11-20T13:10:18;30.98;;;18.75;;
47053;SDS011;32811;52.382;5.270;2022-11-20T13:12:56;30.67;;;17.85;;
47053;SDS011;32811;52.382;5.270;2022-11-20T13:18:34;31.80;;;18.67;;
47053;SDS011;32811;52.382;5.270;2022-11-20T13:21:15;97.50;;;15.55;;
47053;SDS011;32811;52.382;5.270;2022-11-20T13:23:43;29.33;;;16.33;;
47053;SDS011;32811;52.382;5.270;2022-11-20T13:26:15;26.70;;;17.52;;
47053;SDS011;32811;52.382;5.270;2022-11-20T13:28:44;33.13;;;16.95;;
47053;SDS011;32811;52.382;5.270;2022-11-20T13:34:14;27.90;;;16.95;;
47053;SDS011;32811;52.382;5.270;2022-11-20T13:36:51;31.52;;;16.75;;
47053;SDS011;32811;52.382;5.270;2022-11-20T13:39:27;25.70;;;16.83;;
47053;SDS011;32811;52.382;5.270;2022-11-20T13:42:01;25.70;;;16.77;;
47053;SDS011;32811;52.382;5.270;2022-11-20T13:44:50;27.65;;;17.13;;
47053;SDS011;32811;52.382;5.270;2022-11-20T13:47:23;30.13;;;18.33;;
47053;SDS011;32811;52.382;5.270;2022-11-20T13:49:52;30.45;;;16.48;;
47053;SDS011;32811;52.382;5.270;2022-11-20T13:57:31;29.38;;;18.85;;
47053;SDS011;32811;52.382;5.270;2022-11-20T14:00:19;26.50;;;16.75;;
47053;SDS011;32811;52.382;5.270;2022-11-20T14:03:01;27.70;;;17.35;;
47053;SDS011;32811;52.382;5.270;2022-11-20T14:05:45;26.17;;;15.45;;
47053;SDS011;32811;52.382;5.270;2022-11-20T14:08:21;23.85;;;14.85;;
47053;SDS011;32811;52.382;5.270;2022-11-20T14:11:03;22.42;;;14.35;;
47053;SDS011;32811;52.382;5.270;2022-11-20T14:13:38;24.25;;;17.13;;
47053;SDS011;32811;52.382;5.270;2022-11-20T14:16:05;25.25;;;15.75;;
47053;SDS011;32811;52.382;5.270;2022-11-20T14:18:32;30.63;;;17.60;;
47053;SDS011;32811;52.382;5.270;2022-11-20T14:21:01;25.88;;;15.75;;
47053;SDS011;32811;52.382;5.270;2022-11-20T14:23:29;25.13;;;16.23;;
47053;SDS011;32811;52.382;5.270;2022-11-20T14:25:56;24.67;;;15.65;;
47053;SDS011;32811;52.382;5.270;2022-11-20T14:28:27;29.05;;;16.40;;
47053;SDS011;32811;52.382;5.270;2022-11-20T14:30:56;26.40;;;16.58;;
47053;SDS011;32811;52.382;5.270;2022-11-20T14:33:23;24.90;;;15.70;;
47053;SDS011;32811;52.382;5.270;2022-11-20T14:35:53;24.40;;;16.60;;
47053;SDS011;32811;52.382;5.270;2022-11-20T14:38:24;26.23;;;15.43;;
47053;SDS011;32811;52.382;5.270;2022-11-20T14:40:52;23.08;;;15.18;;
47053;SDS011;32811;52.382;5.270;2022-11-20T14:45:58;26.77;;;15.98;;
47053;SDS011;32811;52.382;5.270;2022-11-20T14:48:40;23.58;;;15.02;;
47053;SDS011;32811;52.382;5.270;2022-11-20T14:51:23;24.85;;;15.10;;
47053;SDS011;32811;52.382;5.270;2022-11-20T14:53:54;19.67;;;12.60;;
47053;SDS011;32811;52.382;5.270;2022-11-20T14:56:22;23.30;;;15.23;;
47053;SDS011;32811;52.382;5.270;2022-11-20T14:58:57;23.30;;;15.23;;
47053;SDS011;32811;52.382;5.270;2022-11-20T15:01:25;33.55;;;17.63;;
47053;SDS011;32811;52.382;5.270;2022-11-20T15:04:07;23.70;;;15.50;;
47053;SDS011;32811;52.382;5.270;2022-11-20T15:06:37;24.63;;;15.77;;
47053;SDS011;32811;52.382;5.270;2022-11-20T15:09:15;23.38;;;14.90;;
47053;SDS011;32811;52.382;5.270;2022-11-20T15:11:50;23.10;;;14.90;;
47053;SDS011;32811;52.382;5.270;2022-11-20T15:14:20;30.13;;;16.63;;
47053;SDS011;32811;52.382;5.270;2022-11-20T15:16:48;24.27;;;15.45;;
47053;SDS011;32811;52.382;5.270;2022-11-20T15:19:17;26.02;;;15.98;;
47053;SDS011;32811;52.382;5.270;2022-11-20T15:21:49;27.75;;;15.30;;
47053;SDS011;32811;52.382;5.270;2022-11-20T15:24:16;21.52;;;14.48;;
47053;SDS011;32811;52.382;5.270;2022-11-20T15:26:44;24.25;;;15.50;;
47053;SDS011;32811;52.382;5.270;2022-11-20T15:29:11;24.60;;;16.27;;
47053;SDS011;32811;52.382;5.270;2022-11-20T15:31:40;28.17;;;16.00;;
47053;SDS011;32811;52.382;5.270;2022-11-20T15:34:13;25.10;;;15.90;;
47053;SDS011;32811;52.382;5.270;2022-11-20T15:36:42;29.05;;;17.23;;
47053;SDS011;32811;52.382;5.270;2022-11-20T15:39:09;28.42;;;16.38;;
47053;SDS011;32811;52.382;5.270;2022-11-20T15:41:36;24.80;;;15.90;;
47053;SDS011;32811;52.382;5.270;2022-11-20T15:44:03;32.22;;;16.80;;
47053;SDS011;32811;52.382;5.270;2022-11-20T15:46:31;24.38;;;16.23;;
47053;SDS011;32811;52.382;5.270;2022-11-20T15:49:04;33.67;;;19.05;;
47053;SDS011;32811;52.382;5.270;2022-11-20T15:54:13;24.80;;;15.15;;
47053;SDS011;32811;52.382;5.270;2022-11-20T15:56:43;31.83;;;15.90;;
47053;SDS011;32811;52.382;5.270;2022-11-20T15:59:10;23.65;;;15.50;;
47053;SDS011;32811;52.382;5.270;2022-11-20T16:01:37;28.50;;;16.10;;
47053;SDS011;32811;52.382;5.270;2022-11-20T16:04:04;25.98;;;16.25;;
47053;SDS011;32811;52.382;5.270;2022-11-20T16:06:34;27.15;;;15.93;;
47053;SDS011;32811;52.382;5.270;2022-11-20T16:09:01;25.13;;;16.90;;
47053;SDS011;32811;52.382;5.270;2022-11-20T16:11:28;29.58;;;17.80;;
47053;SDS011;32811;52.382;5.270;2022-11-20T16:13:54;26.95;;;17.35;;
47053;SDS011;32811;52.382;5.270;2022-11-20T16:19:11;33.45;;;18.00;;
47053;SDS011;32811;52.382;5.270;2022-11-20T16:21:40;26.55;;;17.05;;
47053;SDS011;32811;52.382;5.270;2022-11-20T16:24:09;29.83;;;18.70;;
47053;SDS011;32811;52.382;5.270;2022-11-20T16:26:38;28.15;;;17.27;;
47053;SDS011;32811;52.382;5.270;2022-11-20T16:29:06;26.75;;;16.25;;
47053;SDS011;32811;52.382;5.270;2022-11-20T16:31:33;27.38;;;16.80;;